MUCU/SCU METAR and TAF weather

Enter ICAO airport designator
Station Type Date Time Source
MUCU METAR 2021/05/12 22:50 UTC NOAA

MUCU 122250Z 19004KT 160V220 9000 FEW020 29/24 Q1015


Station Type Date Time Source
MUCU Decoded METAR 2021/05/12 22:50 UTC NOAA

Santiago De Cuba, Oriente, Cuba (MUCU) 19-58N 075-51W 55M
May 12, 2021 - 06:50 PM EDT / 2021.05.12 2250 UTC
Wind: from the S (190 degrees) at 5 MPH (4 KT) (direction variable):0
Visibility: 5 mile(s):0
Sky conditions: mostly clear
Temperature: 84 F (29 C)
Dew Point: 75 F (24 C)
Relative Humidity: 74%
Pressure (altimeter): 29.97 in. Hg (1015 hPa)
ob: MUCU 122250Z 19004KT 160V220 9000 FEW020 29/24 Q1015
cycle: 23

Station Type Date Time Source
MUCU TAF 2021/05/12 18:03 UTC NOAA

TAF MUCU 121700Z 1218/1318 16008KT 9000 SCT020
BECMG 1301/1303 VRB03KT

Example: see airport list